地図

経路データ

SID SEASON NUMBER BASIN SUBBASIN NAME ISO_TIME NATURE LAT LON WMO_WIND WMO_PRES WMO_AGENCY TRACK_TYPE DIST2LAND LANDFALL IFLAG USA_AGENCY USA_ATCF_ID USA_LAT USA_LON USA_RECORD USA_STATUS USA_WIND USA_PRES USA_SSHS USA_R34_NE USA_R34_SE USA_R34_SW USA_R34_NW USA_R50_NE USA_R50_SE USA_R50_SW USA_R50_NW USA_R64_NE USA_R64_SE USA_R64_SW USA_R64_NW USA_POCI USA_ROCI USA_RMW USA_EYE TOKYO_LAT TOKYO_LON TOKYO_GRADE TOKYO_WIND TOKYO_PRES TOKYO_R50_DIR TOKYO_R50_LONG TOKYO_R50_SHORT TOKYO_R30_DIR TOKYO_R30_LONG TOKYO_R30_SHORT TOKYO_LAND CMA_LAT CMA_LON CMA_CAT CMA_WIND CMA_PRES HKO_LAT HKO_LON HKO_CAT HKO_WIND HKO_PRES NEWDELHI_LAT NEWDELHI_LON NEWDELHI_GRADE NEWDELHI_WIND NEWDELHI_PRES NEWDELHI_CI NEWDELHI_DP NEWDELHI_POCI REUNION_LAT REUNION_LON REUNION_TYPE REUNION_WIND REUNION_PRES REUNION_TNUM REUNION_CI REUNION_RMW REUNION_R34_NE REUNION_R34_SE REUNION_R34_SW REUNION_R34_NW REUNION_R50_NE REUNION_R50_SE REUNION_R50_SW REUNION_R50_NW REUNION_R64_NE REUNION_R64_SE REUNION_R64_SW REUNION_R64_NW BOM_LAT BOM_LON BOM_TYPE BOM_WIND BOM_PRES BOM_TNUM BOM_CI BOM_RMW BOM_R34_NE BOM_R34_SE BOM_R34_SW BOM_R34_NW BOM_R50_NE BOM_R50_SE BOM_R50_SW BOM_R50_NW BOM_R64_NE BOM_R64_SE BOM_R64_SW BOM_R64_NW BOM_ROCI BOM_POCI BOM_EYE BOM_POS_METHOD BOM_PRES_METHOD NADI_LAT NADI_LON NADI_CAT NADI_WIND NADI_PRES WELLINGTON_LAT WELLINGTON_LON WELLINGTON_WIND WELLINGTON_PRES DS824_LAT DS824_LON DS824_STAGE DS824_WIND DS824_PRES TD9636_LAT TD9636_LON TD9636_STAGE TD9636_WIND TD9636_PRES TD9635_LAT TD9635_LON TD9635_WIND TD9635_PRES TD9635_ROCI NEUMANN_LAT NEUMANN_LON NEUMANN_CLASS NEUMANN_WIND NEUMANN_PRES MLC_LAT MLC_LON MLC_CLASS MLC_WIND MLC_PRES USA_GUST BOM_GUST BOM_GUST_PER REUNION_GUST REUNION_GUST_PER USA_SEAHGT USA_SEARAD_NE USA_SEARAD_SE USA_SEARAD_SW USA_SEARAD_NW STORM_SPEED STORM_DIR
1972274N13255 1972 105 EP MM JOANNE 1972-09-30 00:00:00 TS 12.5000 -104.900 30 hurdat_epa main 662 662 O________OO___ hurdat_epa EP101972 12.5000 -104.900 TD 30 -1 12.5000 -104.900 TC 30 12.5000 -104.900 1 8 260
1972274N13255 1972 105 EP MM JOANNE 1972-09-30 03:00:00 TS 12.4345 -105.287 main 687 687 P________PP___ EP101972 12.4277 -105.293 TD 30 -1 12.4277 -105.293 TC 30 12.4620 -105.264 1 8 263
1972274N13255 1972 105 EP MM JOANNE 1972-09-30 06:00:00 TS 12.4098 -105.692 30 hurdat_epa main 701 701 O________OP___ hurdat_epa EP101972 12.4000 -105.700 TD 30 -1 12.4000 -105.700 TC 30 12.4491 -105.662 1 8 272
1972274N13255 1972 105 EP MM JOANNE 1972-09-30 09:00:00 TS 12.4611 -106.144 main 706 706 P________PP___ EP101972 12.4547 -106.148 TD 37 0 12.4547 -106.148 TC 37 12.4867 -106.129 1 10 281
1972274N13255 1972 105 EP MM JOANNE 1972-09-30 12:00:00 TS 12.6000 -106.700 45 hurdat_epa main 724 724 O________OO___ hurdat_epa EP101972 12.6000 -106.700 TS 45 0 12.6000 -106.700 TC 45 12.6000 -106.700 1 13 286
1972274N13255 1972 105 EP MM JOANNE 1972-09-30 15:00:00 TS 12.8226 -107.415 main 743 740 P________PP___ EP101972 12.8276 -107.420 TS 47 0 12.8276 -107.420 TC 47 12.8027 -107.393 1 15 289
1972274N13255 1972 105 EP MM JOANNE 1972-09-30 18:00:00 TS 13.0928 -108.191 50 hurdat_epa main 769 769 O________OP___ hurdat_epa EP101972 13.1000 -108.200 TS 50 0 13.1000 -108.200 TC 50 13.0642 -108.156 1 16 290
1972274N13255 1972 105 EP MM JOANNE 1972-09-30 21:00:00 TS 13.3607 -108.939 main 782 782 P________PP___ EP101972 13.3650 -108.945 TS 52 0 13.3650 -108.945 TC 52 13.3434 -108.915 1 15 290
1972274N13255 1972 105 EP MM JOANNE 1972-10-01 00:00:00 TS 13.6000 -109.600 55 hurdat_epa main 809 809 O________OO___ hurdat_epa EP101972 13.6000 -109.600 TS 55 0 13.6000 -109.600 TC 55 13.6000 -109.600 2 12 290
1972274N13255 1972 105 EP MM JOANNE 1972-10-01 03:00:00 TS 13.7665 -110.098 main 827 827 P________PP___ EP101972 13.7647 -110.095 TS 55 0 13.7647 -110.095 TC 55 13.7734 -110.108 2 9 289
1972274N13255 1972 105 EP MM JOANNE 1972-10-01 06:00:00 TS 13.9042 -110.507 55 hurdat_epa main 848 848 O________OP___ hurdat_epa EP101972 13.9000 -110.500 TS 55 0 13.9000 -110.500 TC 55 13.9209 -110.533 2 8 290
1972274N13255 1972 105 EP MM JOANNE 1972-10-01 09:00:00 TS 14.0515 -110.904 main 863 863 P________PP___ EP101972 14.0499 -110.900 TS 55 0 14.0499 -110.900 TC 55 14.0580 -110.917 2 8 291
1972274N13255 1972 105 EP MM JOANNE 1972-10-01 12:00:00 TS 14.2000 -111.300 55 hurdat_epa main 886 886 O________OO___ hurdat_epa EP101972 14.2000 -111.300 TS 55 0 14.2000 -111.300 TC 55 14.2000 -111.300 2 9 290
1972274N13255 1972 105 EP MM JOANNE 1972-10-01 15:00:00 TS 14.3459 -111.745 main 909 909 P________PP___ EP101972 14.3425 -111.743 TS 60 0 14.3425 -111.743 TC 60 14.3597 -111.755 2 9 289
1972274N13255 1972 105 EP MM JOANNE 1972-10-01 18:00:00 TS 14.5055 -112.203 65 980 hurdat_epa main 936 936 O________OP___ hurdat_epa EP101972 14.5000 -112.200 HU 65 980 1 14.5000 -112.200 TC 65 980 14.5275 -112.215 2 10 291
1972274N13255 1972 105 EP MM JOANNE 1972-10-01 21:00:00 TS 14.6953 -112.666 main 960 948 P________PP___ EP101972 14.6925 -112.665 HU 70 1 14.6925 -112.665 TC 70 14.7066 -112.668 2 10 294
1972274N13255 1972 105 EP MM JOANNE 1972-10-02 00:00:00 TS 14.9000 -113.100 75 hurdat_epa main 952 942 O________OO___ hurdat_epa EP101972 14.9000 -113.100 HU 75 1 14.9000 -113.100 TC 75 14.9000 -113.100 2 9 297
1972274N13255 1972 105 EP MM JOANNE 1972-10-02 03:00:00 TS 15.0886 -113.466 main 946 939 P________PP___ EP101972 15.0923 -113.458 HU 77 1 15.0923 -113.458 TC 77 15.0737 -113.497 2 8 300
1972274N13255 1972 105 EP MM JOANNE 1972-10-02 06:00:00 TS 15.2934 -113.815 80 hurdat_epa main 939 932 O________OP___ hurdat_epa EP101972 15.3000 -113.800 HU 80 1 15.3000 -113.800 TC 80 15.2670 -113.874 2 8 301
1972274N13255 1972 105 EP MM JOANNE 1972-10-02 09:00:00 TS 15.5104 -114.208 main 937 928 P________PP___ EP101972 15.5125 -114.200 HU 82 1 15.5125 -114.200 TC 82 15.5019 -114.238 2 9 304
1972274N13255 1972 105 EP MM JOANNE 1972-10-02 12:00:00 TS 15.8000 -114.600 85 hurdat_epa main 929 908 O________OO___ hurdat_epa EP101972 15.8000 -114.600 HU 85 2 15.8000 -114.600 TC 85 15.8000 -114.600 4 10 314
1972274N13255 1972 105 EP MM JOANNE 1972-10-02 15:00:00 TS 16.2211 -114.963 main 914 887 P________PP___ EP101972 16.2199 -114.950 HU 85 2 16.2199 -114.950 TC 85 16.2261 -115.014 4 11 322
1972274N13255 1972 105 EP MM JOANNE 1972-10-02 18:00:00 TS 16.7016 -115.325 85 hurdat_epa main 887 872 O________OP___ hurdat_epa EP101972 16.7000 -115.300 HU 85 2 16.7000 -115.300 TC 85 16.7079 -115.423 4 12 323
1972274N13255 1972 105 EP MM JOANNE 1972-10-02 21:00:00 TS 17.1872 -115.737 main 872 869 P________PP___ EP101972 17.1876 -115.722 HU 85 2 17.1876 -115.722 TC 85 17.1856 -115.796 4 12 321
1972274N13255 1972 105 EP MM JOANNE 1972-10-03 00:00:00 TS 17.6000 -116.100 85 hurdat_epa main 869 869 O________OO___ hurdat_epa EP101972 17.6000 -116.100 HU 85 2 17.6000 -116.100 TC 85 17.6000 -116.100 4 9 318
1972274N13255 1972 105 EP MM JOANNE 1972-10-03 03:00:00 TS 17.8401 -116.346 main 869 869 P________PP___ EP101972 17.8374 -116.353 HU 82 1 17.8374 -116.353 TC 82 17.8511 -116.318 4 6 318
1972274N13255 1972 105 EP MM JOANNE 1972-10-03 06:00:00 TS 18.0074 -116.493 80 hurdat_epa main 870 861 O________OP___ hurdat_epa EP101972 18.0000 -116.500 HU 80 1 18.0000 -116.500 TC 80 18.0370 -116.464 4 4 328
1972274N13255 1972 105 EP MM JOANNE 1972-10-03 09:00:00 TS 18.1889 -116.574 main 861 843 P________PP___ EP101972 18.1850 -116.580 HU 80 1 18.1850 -116.580 TC 80 18.2044 -116.552 4 4 346
1972274N13255 1972 105 EP MM JOANNE 1972-10-03 12:00:00 TS 18.4000 -116.600 80 hurdat_epa main 843 815 O________OO___ hurdat_epa EP101972 18.4000 -116.600 HU 80 1 18.4000 -116.600 TC 80 18.4000 -116.600 4 5 354
1972274N13255 1972 105 EP MM JOANNE 1972-10-03 15:00:00 TS 18.6822 -116.613 main 815 788 P________PP___ EP101972 18.6775 -116.608 HU 80 1 18.6775 -116.608 TC 80 18.7012 -116.636 4 6 0
1972274N13255 1972 105 EP MM JOANNE 1972-10-03 18:00:00 TS 19.0070 -116.608 80 971 hurdat_epa main 788 761 O________OP___ hurdat_epa EP101972 19.0000 -116.600 HU 80 971 1 19.0000 -116.600 TC 80 971 19.0350 -116.638 4 7 2
1972274N13255 1972 105 EP MM JOANNE 1972-10-03 21:00:00 TS 19.3612 -116.604 main 752 725 P________PP___ EP101972 19.3575 -116.600 HU 80 1 19.3575 -116.600 TC 80 19.3762 -116.621 4 7 1
1972274N13255 1972 105 EP MM JOANNE 1972-10-04 00:00:00 TS 19.7000 -116.600 80 hurdat_epa main 725 708 O________OO___ hurdat_epa EP101972 19.7000 -116.600 HU 80 1 19.7000 -116.600 TC 80 19.7000 -116.600 4 6 0
1972274N13255 1972 105 EP MM JOANNE 1972-10-04 03:00:00 TS 19.9574 -116.601 main 699 683 P________PP___ EP101972 19.9650 -116.600 HU 80 1 19.9650 -116.600 TC 80 19.9269 -116.604 4 5 0
1972274N13255 1972 105 EP MM JOANNE 1972-10-04 06:00:00 TS 20.1880 -116.601 80 hurdat_epa main 683 666 O________OP___ hurdat_epa EP101972 20.2000 -116.600 HU 80 1 20.2000 -116.600 TC 80 20.1400 -116.607 4 5 0
1972274N13255 1972 105 EP MM JOANNE 1972-10-04 09:00:00 TS 20.4126 -116.601 main 666 642 P________PP___ EP101972 20.4200 -116.600 HU 75 1 20.4200 -116.600 TC 75 20.3831 -116.607 4 5 0
1972274N13255 1972 105 EP MM JOANNE 1972-10-04 12:00:00 TS 20.7000 -116.600 70 hurdat_epa main 642 611 O________OO___ hurdat_epa EP101972 20.7000 -116.600 HU 70 1 20.7000 -116.600 TC 70 20.7000 -116.600 4 7 358
1972274N13255 1972 105 EP MM JOANNE 1972-10-04 15:00:00 TS 21.1031 -116.605 main 611 574 P________PP___ EP101972 21.0975 -116.607 HU 67 1 21.0975 -116.607 TC 67 21.1257 -116.594 4 9 0
1972274N13255 1972 105 EP MM JOANNE 1972-10-04 18:00:00 TS 21.6060 -116.596 65 hurdat_epa main 574 540 O________OP___ hurdat_epa EP101972 21.6000 -116.600 HU 65 1 21.6000 -116.600 TC 65 21.6301 -116.579 4 11 2
1972274N13255 1972 105 EP MM JOANNE 1972-10-04 21:00:00 TS 22.1749 -116.562 main 534 491 P________PP___ EP101972 22.1700 -116.565 HU 65 1 22.1700 -116.565 TC 65 22.1945 -116.550 4 12 4
1972274N13255 1972 105 EP MM JOANNE 1972-10-05 00:00:00 TS 22.8000 -116.500 65 hurdat_epa main 491 453 O________OO___ hurdat_epa EP101972 22.8000 -116.500 HU 65 1 22.8000 -116.500 TC 65 22.8000 -116.500 4 13 6
1972274N13255 1972 105 EP MM JOANNE 1972-10-05 03:00:00 TS 23.4417 -116.411 main 453 395 P________PP___ EP101972 23.4425 -116.408 HU 62 0 23.4425 -116.408 TC 62 23.4384 -116.426 4 13 8
1972274N13255 1972 105 EP MM JOANNE 1972-10-05 06:00:00 TS 24.1015 -116.306 60 hurdat_epa main 395 332 O________OP___ hurdat_epa EP101972 24.1000 -116.300 TS 60 0 24.1000 -116.300 TC 60 24.1075 -116.330 4 13 8
1972274N13255 1972 105 EP MM JOANNE 1972-10-05 09:00:00 TS 24.7666 -116.204 main 322 262 P________PP___ EP101972 24.7650 -116.200 TS 57 0 24.7650 -116.200 TC 57 24.7728 -116.220 4 13 8
1972274N13255 1972 105 EP MM JOANNE 1972-10-05 12:00:00 TS 25.4000 -116.100 55 hurdat_epa main 262 215 O________OO___ hurdat_epa EP101972 25.4000 -116.100 TS 55 0 25.4000 -116.100 TC 55 25.4000 -116.100 2 12 8
1972274N13255 1972 105 EP MM JOANNE 1972-10-05 15:00:00 TS 25.9766 -116.004 main 207 160 P________PP___ EP101972 25.9800 -116.007 TS 55 0 25.9800 -116.007 TC 55 25.9633 -115.990 2 11 10
1972274N13255 1972 105 EP MM JOANNE 1972-10-05 18:00:00 TS 26.4965 -115.894 55 hurdat_epa main 160 111 O________OP___ hurdat_epa EP101972 26.5000 -115.900 TS 55 0 26.5000 -115.900 TC 55 26.4823 -115.872 2 10 13
1972274N13255 1972 105 EP MM JOANNE 1972-10-05 21:00:00 TS 26.9760 -115.755 main 111 67 P________PP___ EP101972 26.9800 -115.757 TS 55 0 26.9800 -115.757 TC 55 26.9601 -115.743 2 9 16
1972274N13255 1972 105 EP MM JOANNE 1972-10-06 00:00:00 TS 27.4000 -115.600 55 982 hurdat_epa main 67 49 O________OO___ hurdat_epa EP101972 27.4000 -115.600 TS 55 982 0 27.4000 -115.600 TC 55 982 27.4000 -115.600 2 8 19
1972274N13255 1972 105 EP MM JOANNE 1972-10-06 03:00:00 TS 27.7671 -115.454 main 49 36 P________PP___ EP101972 27.7575 -115.457 TS 55 0 27.7575 -115.457 TC 55 27.8058 -115.441 2 8 21
1972274N13255 1972 105 EP MM JOANNE 1972-10-06 06:00:00 TS 28.1135 -115.295 55 hurdat_epa main 44 44 O________OP___ hurdat_epa EP101972 28.1000 -115.300 TS 55 0 28.1000 -115.300 TC 55 28.1853 -115.269 2 8 22
1972274N13255 1972 105 EP MM JOANNE 1972-10-06 09:00:00 TS 28.4851 -115.125 main 78 36 P________PP___ EP101972 28.4774 -115.130 TS 47 0 28.4774 -115.130 TC 47 28.5471 -115.087 2 9 24
1972274N13255 1972 105 EP MM JOANNE 1972-10-06 12:00:00 TS 28.9000 -114.900 40 hurdat_epa main 36 0 O________OO___ hurdat_epa EP101972 28.9000 -114.900 TS 40 0 28.9000 -114.900 TC 40 28.9000 -114.900 2 10 27
1972274N13255 1972 105 EP MM JOANNE 1972-10-06 15:00:00 TS 29.3772 -114.609 main 0 0 P________P____ EP101972 29.3772 -114.609 TS 40 0 29.3772 -114.609 TC 40 2 12 31
1972274N13255 1972 105 EP MM JOANNE 1972-10-06 18:00:00 ET 29.9000 -114.200 40 1004 hurdat_epa main 22 22 O________O____ hurdat_epa EP101972 29.9000 -114.200 ET 40 1004 -4 29.9000 -114.200 40 1004 2 14 38
1972274N13255 1972 105 EP MM JOANNE 1972-10-06 21:00:00 ET 30.4458 -113.644 main 58 0 P________P____ EP101972 30.4458 -113.644 ET 32 -4 30.4458 -113.644 32 2 15 43
1972274N13255 1972 105 EP MM JOANNE 1972-10-07 00:00:00 ET 31.0000 -113.000 25 hurdat_epa main 0 O________O____ hurdat_epa EP101972 31.0000 -113.000 ET 25 -4 31.0000 -113.000 25 16 45

IBTrACS Databaseについて

本データベースは、米国NOAAが公開する1842年以降の世界の熱帯低気圧のベストトラックデータアーカイブInternational Best Track Archive for Climate Stewardship (IBTrACS)を、ウェブで閲覧しやすい形式に変換したものです。

最終更新日:2021-12-03